Time;durP1;ratioP1;P1;durP2;ratioP2;P2;SDS_P1;SDS_P2;PMS_P1;PMS_P2;Temp;Humidity;BMP_temperature;BMP_pressure;BME280_temperature;BME280_humidity;BME280_pressure;Samples;Min_cycle;Max_cycle;Signal;HPM_P1;HPM_P2
2021/05/08 00:02:09;;;;;;;19.92;16.25;;;9.20;99.90;;;9.17;67.82;101608.06;5057483;28;20044;-79
2021/05/08 00:04:37;;;;;;;23.15;16.40;;;9.00;99.90;;;9.14;68.07;101608.00;5074182;28;20049;-79
2021/05/08 00:07:04;;;;;;;21.02;16.90;;;9.00;99.90;;;9.18;68.09;101607.19;5056022;28;20454;-79
2021/05/08 00:09:32;;;;;;;19.52;16.45;;;9.00;99.90;;;9.25;68.13;101598.50;5054969;28;20037;-79
2021/05/08 00:11:59;;;;;;;18.10;15.73;;;9.00;99.90;;;9.17;68.07;101594.88;5054951;28;20041;-79
2021/05/08 00:14:27;;;;;;;18.67;15.43;;;9.00;99.90;;;9.03;68.43;101593.78;5070422;28;20044;-79
2021/05/08 00:16:55;;;;;;;20.05;16.48;;;8.90;99.90;;;9.05;68.87;101594.69;5053882;28;20461;-79
2021/05/08 00:19:23;;;;;;;19.77;14.90;;;8.80;99.90;;;9.10;69.29;101596.53;5054861;28;20063;-78
2021/05/08 00:21:51;;;;;;;19.65;16.58;;;8.90;99.90;;;9.11;69.16;101581.59;5054811;28;20069;-77
2021/05/08 00:24:19;;;;;;;19.02;15.48;;;8.90;99.90;;;9.03;69.44;101585.88;5053570;28;20041;-79
2021/05/08 00:26:47;;;;;;;19.73;16.27;;;8.90;99.90;;;9.03;70.24;101583.25;5054669;28;20044;-79
2021/05/08 00:29:14;;;;;;;20.00;15.30;;;8.80;99.90;;;8.84;70.58;101576.84;5054714;28;20067;-78
2021/05/08 00:31:42;;;;;;;23.05;17.33;;;8.70;99.90;;;8.65;71.24;101577.41;5054511;28;20079;-78
2021/05/08 00:34:10;;;;;;;19.48;16.60;;;8.50;99.90;;;8.77;71.39;101574.97;5054526;28;20067;-79
2021/05/08 00:36:38;;;;;;;21.08;18.15;;;8.50;99.90;;;8.71;71.62;101577.50;5054556;28;20049;-78
2021/05/08 00:39:06;;;;;;;20.10;17.38;;;8.50;99.90;;;8.80;71.54;101571.50;5069763;28;20083;-79
2021/05/08 00:41:36;;;;;;;20.70;15.97;;;8.50;99.90;;;8.94;71.17;101580.50;5069772;28;20387;-79
2021/05/08 00:44:06;;;;;;;22.83;17.35;;;8.60;99.90;;;8.86;70.67;101553.13;5052926;28;20573;-79
2021/05/08 00:46:34;;;;;;;23.15;18.20;;;8.70;99.90;;;9.02;70.21;101570.91;5052692;28;20490;-79
2021/05/08 00:49:04;;;;;;;24.00;18.08;;;8.70;99.90;;;8.80;70.65;101550.38;5052916;28;20047;-79
2021/05/08 00:51:32;;;;;;;20.60;18.33;;;8.70;99.90;;;8.87;70.48;101561.03;5052868;28;20051;-79
2021/05/08 00:54:00;;;;;;;23.15;18.05;;;8.70;99.90;;;8.95;70.34;101569.94;5053855;28;20041;-79
2021/05/08 00:56:28;;;;;;;22.35;17.75;;;8.70;99.90;;;9.00;69.82;101572.66;5054127;28;20049;-78
2021/05/08 00:58:57;;;;;;;21.65;17.77;;;8.70;99.90;;;8.84;69.51;101552.22;5053728;28;20055;-79
2021/05/08 01:01:24;;;;;;;22.77;18.58;;;8.70;99.90;;;8.97;69.51;101568.22;5053709;28;20072;-79
2021/05/08 01:03:53;;;;;;;22.08;17.88;;;8.80;99.90;;;8.87;70.02;101562.78;5052584;28;20139;-77
2021/05/08 01:06:22;;;;;;;23.00;18.48;;;8.70;99.90;;;8.79;70.29;101556.50;5052525;28;20490;-79
2021/05/08 01:08:49;;;;;;;21.85;18.15;;;8.60;99.90;;;8.75;70.55;101549.47;5053609;28;20044;-78
2021/05/08 01:11:18;;;;;;;22.50;18.98;;;8.50;99.90;;;8.66;70.74;101554.56;5069432;28;20041;-79
2021/05/08 01:13:47;;;;;;;22.23;18.90;;;8.40;99.90;;;8.66;70.24;101546.66;5051532;28;20486;-79
2021/05/08 01:16:15;;;;;;;23.20;17.75;;;8.40;99.90;;;8.67;70.87;101546.69;5052370;28;20060;-79
2021/05/08 01:18:43;;;;;;;23.77;19.00;;;8.40;99.90;;;8.58;70.57;101522.84;5053639;28;20102;-79
2021/05/08 01:21:14;;;;;;;21.95;19.13;;;8.50;99.90;;;8.50;70.57;101536.75;5053287;28;20048;-78
2021/05/08 01:23:43;;;;;;;25.50;19.52;;;8.30;99.90;;;8.58;70.51;101532.47;5052183;28;20049;-78
2021/05/08 01:26:12;;;;;;;23.63;18.77;;;8.30;99.90;;;8.67;70.38;101527.38;5069142;28;20072;-79
2021/05/08 01:28:40;;;;;;;22.55;19.88;;;8.40;99.90;;;8.54;70.71;101526.28;5052171;28;20049;-79
2021/05/08 01:31:09;;;;;;;22.48;19.45;;;8.30;99.90;;;8.26;71.17;101528.50;5085752;28;20479;-78
2021/05/08 01:33:37;;;;;;;24.10;18.98;;;8.20;99.90;;;8.15;71.74;101523.91;5053142;28;20498;-79
2021/05/08 01:36:05;;;;;;;24.75;19.70;;;8.00;99.90;;;8.19;71.53;101522.19;5051743;28;20131;-79
2021/05/08 01:38:34;;;;;;;23.17;19.23;;;8.00;99.90;;;8.26;71.72;101520.59;5052089;28;20522;-78
2021/05/08 01:41:07;;;;;;;25.02;19.10;;;8.00;99.90;;;8.39;70.72;101518.16;5053269;28;20138;-79
2021/05/08 01:43:36;;;;;;;23.15;17.88;;;8.10;99.90;;;8.46;70.50;101513.88;5053212;28;20053;-79
2021/05/08 01:46:05;;;;;;;23.23;18.77;;;8.20;99.90;;;8.56;70.31;101515.75;5051947;28;20053;-78
2021/05/08 01:48:34;;;;;;;23.55;19.23;;;8.30;99.90;;;8.46;70.48;101514.75;5052956;28;20047;-79
2021/05/08 01:51:04;;;;;;;23.85;18.40;;;8.30;99.90;;;8.31;71.04;101508.34;5053089;28;20449;-79
2021/05/08 01:53:33;;;;;;;23.52;18.30;;;8.20;99.90;;;7.63;71.43;101394.91;5053114;28;20048;-78
2021/05/08 01:56:00;;;;;;;22.15;18.15;;;8.00;99.90;;;8.43;70.87;101505.91;5053060;28;20367;-79
2021/05/08 01:58:31;;;;;;;20.90;17.77;;;8.10;99.90;;;8.41;70.49;101500.63;5068203;28;20068;-79
2021/05/08 02:01:01;;;;;;;25.42;17.38;;;8.20;99.90;;;8.37;70.08;101493.53;5052637;28;20453;-79
2021/05/08 02:03:35;;;;;;;22.05;17.23;;;8.20;99.90;;;8.42;69.88;101486.56;5068309;28;20053;-79
2021/05/08 02:06:03;;;;;;;22.73;17.90;;;8.30;99.90;;;8.42;69.54;101493.59;5052571;28;20505;-79
2021/05/08 02:08:50;;;;;;;20.17;16.85;;;8.20;99.90;;;8.40;69.97;101487.44;5052929;28;20059;-78
2021/05/08 02:11:27;;;;;;;22.92;18.52;;;8.20;99.90;;;8.51;69.91;101488.47;5085139;28;20068;-78
2021/05/08 02:13:55;;;;;;;23.15;16.77;;;8.30;99.90;;;8.42;70.34;101481.28;5051512;28;20049;-79
2021/05/08 02:16:25;;;;;;;20.23;17.45;;;8.20;99.90;;;8.34;70.11;101467.16;5051529;28;20068;-78
2021/05/08 02:18:52;;;;;;;19.45;16.65;;;8.20;99.90;;;8.32;70.35;101474.16;5068298;28;20136;-79
2021/05/08 02:21:20;;;;;;;24.85;18.27;;;8.10;99.90;;;8.30;70.46;101470.59;5052846;28;20405;-78
2021/05/08 02:23:51;;;;;;;25.58;18.50;;;8.10;99.90;;;8.18;70.57;101454.56;5052440;28;20063;-78
2021/05/08 02:26:19;;;;;;;23.15;16.85;;;8.00;99.90;;;8.21;71.05;101466.03;5055643;28;20401;-79
2021/05/08 02:28:47;;;;;;;20.38;17.58;;;8.00;99.90;;;8.29;70.92;101463.53;5056640;28;20549;-79
2021/05/08 02:31:15;;;;;;;22.17;17.15;;;8.10;99.90;;;8.19;70.48;101459.84;5056462;28;20699;-78
2021/05/08 02:33:43;;;;;;;20.90;17.10;;;8.00;99.90;;;8.20;71.16;101459.00;5055625;28;20437;-79
2021/05/08 02:36:10;;;;;;;30.88;17.40;;;8.00;99.90;;;8.28;71.02;101458.25;5072065;28;20051;-78
2021/05/08 02:38:38;;;;;;;21.25;17.42;;;8.00;99.90;;;8.34;70.56;101459.25;5071978;28;20043;-79
2021/05/08 02:41:09;;;;;;;20.88;17.15;;;8.10;99.90;;;8.49;70.57;101458.53;5055400;28;20111;-78
2021/05/08 02:43:36;;;;;;;21.95;17.42;;;8.20;99.90;;;8.41;70.28;101457.56;5055199;28;20458;-78
2021/05/08 02:46:10;;;;;;;20.25;16.30;;;8.20;99.90;;;8.43;70.78;101447.91;5055334;28;20390;-78
2021/05/08 02:48:38;;;;;;;21.98;17.15;;;8.20;99.90;;;8.48;70.35;101443.59;5055245;28;20092;-78
2021/05/08 02:51:05;;;;;;;24.33;18.13;;;8.20;99.90;;;8.72;69.43;101443.91;5056425;28;20057;-78
2021/05/08 02:53:33;;;;;;;21.00;17.63;;;8.40;99.90;;;8.88;69.37;101441.44;5056073;28;20471;-78
2021/05/08 02:56:02;;;;;;;22.40;17.38;;;8.60;99.90;;;9.02;68.62;101434.59;5055101;28;20053;-78
2021/05/08 02:58:36;;;;;;;20.20;17.15;;;8.70;99.90;;;9.12;68.10;101440.84;5055972;28;20064;-77
2021/05/08 03:01:04;;;;;;;21.10;17.10;;;8.80;99.90;;;9.09;67.39;101446.09;5054985;28;20448;-78
2021/05/08 03:03:32;;;;;;;19.00;15.55;;;8.80;99.90;;;9.16;67.33;101442.66;5056152;28;20104;-78
2021/05/08 03:06:00;;;;;;;21.58;17.33;;;8.90;99.90;;;8.88;68.01;101438.81;5054818;28;20048;-79
2021/05/08 03:08:33;;;;;;;23.95;16.50;;;8.70;99.90;;;8.78;68.79;101428.16;5056137;28;20049;-77
2021/05/08 03:11:04;;;;;;;21.77;17.40;;;8.50;99.90;;;8.69;69.30;101428.06;5071532;28;20482;-79
2021/05/08 03:13:34;;;;;;;24.85;16.40;;;8.50;99.90;;;8.56;69.49;101424.38;5054718;28;20049;-78
2021/05/08 03:16:03;;;;;;;25.95;16.40;;;8.30;99.90;;;8.41;69.42;101425.91;5056044;28;20390;-78
2021/05/08 03:18:31;;;;;;;21.23;16.65;;;8.20;99.90;;;8.34;69.54;101424.09;5054597;28;20389;-78
2021/05/08 03:20:59;;;;;;;21.45;16.02;;;8.10;99.90;;;8.32;69.84;101417.91;5055516;28;20494;-78
2021/05/08 03:23:27;;;;;;;20.92;15.90;;;8.10;99.90;;;8.25;70.86;101413.41;5055843;28;20123;-78
2021/05/08 03:25:55;;;;;;;22.33;16.88;;;8.00;99.90;;;8.18;71.01;101417.69;5054492;28;20145;-78
2021/05/08 03:28:22;;;;;;;20.70;17.25;;;7.90;99.90;;;8.09;70.77;101407.88;5054451;28;20553;-79
2021/05/08 03:30:50;;;;;;;21.98;16.42;;;7.90;99.90;;;8.11;70.85;101397.34;5054476;28;20132;-78
2021/05/08 03:33:18;;;;;;;20.98;16.27;;;7.90;99.90;;;8.12;70.46;101391.25;5071065;28;20444;-78
2021/05/08 03:35:46;;;;;;;21.83;15.90;;;7.90;99.90;;;8.13;70.53;101386.00;5054524;28;20053;-79
2021/05/08 03:38:13;;;;;;;22.63;16.23;;;7.90;99.90;;;8.13;70.22;101386.00;5055604;28;20048;-79
2021/05/08 03:40:41;;;;;;;24.70;17.42;;;7.90;99.90;;;8.08;70.18;101387.69;5055281;28;20049;-78
2021/05/08 03:43:08;;;;;;;20.52;15.85;;;7.90;99.90;;;7.98;70.38;101380.50;5055700;28;20048;-79
2021/05/08 03:45:36;;;;;;;17.52;15.52;;;7.80;99.90;;;8.07;70.26;101387.69;5055176;28;20506;-79
2021/05/08 03:48:05;;;;;;;20.60;15.93;;;7.80;99.90;;;8.25;69.67;101379.13;5055452;28;20398;-78
2021/05/08 03:50:34;;;;;;;19.02;14.82;;;8.00;99.90;;;8.23;69.22;101375.59;5055570;28;20052;-78
2021/05/08 03:53:02;;;;;;;22.85;15.02;;;8.00;99.90;;;8.32;68.50;101378.38;5055217;28;20045;-77
2021/05/08 03:55:30;;;;;;;17.30;14.80;;;8.00;99.90;;;8.46;68.48;101382.06;5053967;28;20041;-78
2021/05/08 03:57:58;;;;;;;15.70;13.90;;;8.20;99.90;;;8.52;68.30;101379.47;5055261;28;20036;-78
2021/05/08 04:00:25;;;;;;;18.83;14.00;;;8.20;99.90;;;8.52;67.68;101379.47;5054164;28;20041;-78
2021/05/08 04:02:53;;;;;;;17.60;13.95;;;8.30;99.90;;;8.55;67.47;101376.91;5055078;28;20098;-78
2021/05/08 04:05:20;;;;;;;17.98;14.43;;;8.30;99.90;;;8.56;67.57;101373.38;5055069;28;20037;-78
2021/05/08 04:07:48;;;;;;;17.70;13.68;;;8.30;99.90;;;8.36;67.04;101348.56;5055543;28;20102;-78
2021/05/08 04:10:16;;;;;;;15.63;13.95;;;8.30;99.90;;;8.58;67.09;101369.00;5055237;28;20048;-79
2021/05/08 04:12:44;;;;;;;16.85;13.77;;;8.30;99.90;;;8.48;66.77;101360.13;5055158;28;20120;-78
2021/05/08 04:15:12;;;;;;;23.15;14.35;;;8.30;99.90;;;8.57;66.41;101367.25;5054838;28;20490;-79
2021/05/08 04:17:39;;;;;;;20.50;13.63;;;8.30;99.90;;;8.53;66.23;101358.44;5053687;28;20041;-79
2021/05/08 04:20:08;;;;;;;15.80;13.20;;;8.40;99.90;;;8.73;65.87;101356.03;5054949;28;20095;-78
2021/05/08 04:22:35;;;;;;;16.02;13.25;;;8.40;99.90;;;8.64;65.94;101364.72;5054844;28;20049;-78
2021/05/08 04:25:04;;;;;;;15.85;12.10;;;8.40;99.90;;;8.71;65.86;101353.34;5054587;28;20045;-78
2021/05/08 04:27:31;;;;;;;18.05;12.80;;;8.50;99.90;;;8.71;65.98;101349.84;5054863;28;20052;-79
2021/05/08 04:29:59;;;;;;;17.33;12.57;;;8.50;99.90;;;8.62;66.07;101347.09;5054689;28;20048;-78
2021/05/08 04:32:26;;;;;;;20.98;14.25;;;8.40;99.90;;;8.60;66.48;101349.72;5054559;28;20076;-78
2021/05/08 04:34:54;;;;;;;17.38;12.77;;;8.40;99.90;;;8.66;65.99;101343.63;5069822;28;20414;-78
2021/05/08 04:37:21;;;;;;;20.63;13.52;;;8.40;99.90;;;8.81;65.57;101351.69;5054494;28;20083;-78
2021/05/08 04:39:49;;;;;;;18.98;13.32;;;8.50;99.90;;;8.65;65.96;101341.88;5054437;28;20775;-78
2021/05/08 04:42:17;;;;;;;17.05;13.18;;;8.50;99.90;;;8.72;66.13;101334.03;5054374;28;20037;-78
2021/05/08 04:44:45;;;;;;;18.55;13.70;;;8.50;99.90;;;8.66;65.53;101333.97;5054206;28;20053;-76
2021/05/08 04:47:13;;;;;;;21.40;13.98;;;8.50;99.90;;;8.71;66.15;101326.13;5054069;28;20091;-78
2021/05/08 04:49:41;;;;;;;17.40;13.68;;;8.50;99.90;;;8.81;65.61;101327.94;5052907;28;20044;-78
2021/05/08 04:52:09;;;;;;;17.98;14.15;;;8.60;99.90;;;8.81;65.58;101326.22;5053815;28;20041;-79
2021/05/08 04:54:36;;;;;;;17.90;14.10;;;8.60;99.90;;;8.82;65.23;101332.38;5054406;28;20055;-78
2021/05/08 04:57:05;;;;;;;21.73;14.73;;;8.60;99.90;;;8.78;65.26;101327.94;5054067;28;20052;-78
2021/05/08 04:59:33;;;;;;;20.92;14.75;;;8.60;99.90;;;8.63;66.45;101326.00;5053946;28;20049;-78
2021/05/08 05:02:01;;;;;;;17.10;13.70;;;8.50;99.90;;;8.55;66.20;101329.44;5053884;28;20100;-78
2021/05/08 05:04:28;;;;;;;19.77;14.50;;;8.40;99.90;;;8.59;66.14;101320.72;5053715;28;20090;-78
2021/05/08 05:06:56;;;;;;;16.30;14.43;;;8.40;99.90;;;8.73;65.61;101314.69;5053833;28;20045;-79
2021/05/08 05:09:27;;;;;;;18.30;13.90;;;8.50;99.90;;;8.71;65.97;101331.41;5052517;28;20076;-78
2021/05/08 05:11:54;;;;;;;17.73;14.57;;;8.50;99.90;;;8.53;66.55;101295.16;5053719;28;20053;-78
2021/05/08 05:14:22;;;;;;;18.90;14.40;;;8.50;99.90;;;8.79;66.31;101324.41;5053424;28;20045;-78
2021/05/08 05:16:50;;;;;;;21.38;15.60;;;8.50;99.90;;;8.86;66.04;101323.63;5053376;28;20498;-78
2021/05/08 05:19:17;;;;;;;18.65;15.75;;;8.60;99.90;;;8.87;66.89;101321.00;5053608;28;20076;-79
2021/05/08 05:21:45;;;;;;;21.15;16.85;;;8.70;99.90;;;8.96;66.80;101320.22;5053874;28;20078;-78
2021/05/08 05:24:13;;;;;;;19.65;15.63;;;8.70;99.90;;;8.97;66.11;101333.41;5053470;28;20557;-78
2021/05/08 05:26:40;;;;;;;18.75;14.32;;;8.80;99.90;;;9.04;66.04;101329.06;5053508;28;20052;-78
2021/05/08 05:29:10;;;;;;;19.00;15.88;;;8.80;99.90;;;9.26;66.27;101325.75;5053442;28;20128;-76
2021/05/08 05:31:38;;;;;;;21.25;15.68;;;9.00;99.90;;;9.56;64.66;101322.47;5053295;28;20556;-78
2021/05/08 05:34:06;;;;;;;20.98;14.63;;;9.30;99.90;;;9.76;64.42;101329.63;5053238;28;20432;-78
2021/05/08 05:36:34;;;;;;;16.30;14.30;;;9.50;99.90;;;9.87;63.88;101324.41;5052921;28;20049;-77
2021/05/08 05:39:02;;;;;;;18.55;14.55;;;9.60;99.90;;;9.77;64.10;101319.97;5053207;28;20039;-77
2021/05/08 05:41:30;;;;;;;18.67;15.23;;;9.60;99.90;;;9.63;64.61;101316.34;5053171;28;20052;-77
2021/05/08 05:43:57;;;;;;;20.20;14.52;;;9.50;99.90;;;9.52;66.01;101318.91;5052989;28;20073;-78
2021/05/08 05:46:30;;;;;;;19.42;15.02;;;9.30;99.90;;;9.46;66.42;101320.63;5052839;28;20556;-76
2021/05/08 05:48:57;;;;;;;21.70;14.13;;;9.30;99.90;;;9.30;65.92;101308.16;5053043;28;20049;-78
2021/05/08 05:51:27;;;;;;;17.75;14.07;;;9.10;99.90;;;9.25;66.34;101308.16;5052913;28;20048;-77
2021/05/08 05:53:56;;;;;;;16.33;14.52;;;9.10;99.90;;;9.34;66.45;101315.25;5053042;28;20445;-77
2021/05/08 05:56:26;;;;;;;17.10;14.43;;;9.10;99.90;;;9.27;66.42;101308.16;5053210;28;20068;-78
2021/05/08 05:58:53;;;;;;;18.48;14.35;;;9.10;99.90;;;9.31;66.35;101308.16;5052033;28;20052;-78
2021/05/08 06:01:21;;;;;;;16.88;14.15;;;9.10;99.90;;;9.30;66.54;101301.13;5052965;28;20114;-77
2021/05/08 06:03:49;;;;;;;21.42;14.63;;;9.10;99.90;;;9.31;66.91;101276.50;5052903;28;20131;-77
2021/05/08 06:06:16;;;;;;;19.27;14.25;;;9.20;99.90;;;9.32;66.65;101296.75;5053012;28;20056;-77
2021/05/08 06:08:45;;;;;;;16.38;14.35;;;9.20;99.90;;;9.48;67.40;101296.00;5052860;28;20128;-78
2021/05/08 06:11:12;;;;;;;17.90;14.02;;;9.20;99.90;;;9.56;66.49;101291.63;5052747;28;20107;-78
2021/05/08 06:13:40;;;;;;;19.85;14.20;;;9.30;99.90;;;9.62;66.69;101285.53;5052971;28;20094;-78
2021/05/08 06:16:07;;;;;;;17.58;14.40;;;9.30;99.90;;;9.54;66.67;101282.81;5052659;28;20124;-77
2021/05/08 06:18:35;;;;;;;18.13;13.55;;;9.40;99.90;;;9.43;65.94;101263.38;5052405;28;20137;-78
2021/05/08 06:21:07;;;;;;;18.30;13.75;;;9.40;99.90;;;9.53;65.14;101274.88;5052603;28;20131;-77
2021/05/08 06:23:35;;;;;;;21.13;15.18;;;9.40;99.90;;;9.64;66.59;101260.88;5052480;28;20044;-78
2021/05/08 06:26:04;;;;;;;17.65;13.95;;;9.50;99.90;;;9.89;66.94;101275.13;5052575;28;20047;-78
2021/05/08 06:28:31;;;;;;;16.98;13.55;;;9.60;99.90;;;9.75;66.81;101271.50;5052498;28;20037;-79
2021/05/08 06:30:58;;;;;;;18.55;14.15;;;9.60;99.90;;;9.81;66.13;101276.84;5052591;28;20049;-77
2021/05/08 06:33:26;;;;;;;21.40;14.13;;;9.60;99.90;;;9.92;66.66;101278.66;5052168;28;20506;-75
2021/05/08 06:35:53;;;;;;;19.02;13.77;;;9.70;99.90;;;9.85;65.91;101279.47;5052229;28;20112;-76
2021/05/08 06:38:21;;;;;;;16.73;13.65;;;9.70;99.90;;;9.67;65.69;101252.09;5052123;28;20564;-78
2021/05/08 06:40:48;;;;;;;17.75;13.73;;;9.60;99.90;;;9.77;66.04;101281.22;5052402;28;20466;-77
2021/05/08 06:43:17;;;;;;;19.40;14.30;;;9.60;99.90;;;9.81;65.59;101282.97;5052325;28;20128;-78
2021/05/08 06:45:44;;;;;;;19.02;13.82;;;9.60;99.90;;;9.82;66.11;101279.47;5052424;28;20398;-77
2021/05/08 06:48:11;;;;;;;20.67;15.02;;;9.70;99.90;;;9.76;65.90;101271.50;5052439;28;20444;-78
2021/05/08 06:50:39;;;;;;;16.85;14.68;;;9.70;99.90;;;9.60;66.68;101266.16;5051367;28;20064;-75
2021/05/08 06:53:06;;;;;;;18.60;15.25;;;9.60;99.90;;;9.34;67.26;101180.63;5051866;28;20557;-75
2021/05/08 06:55:34;;;;;;;22.02;16.02;;;9.70;99.90;;;9.84;67.61;101277.72;5067823;28;20145;-76
2021/05/08 06:58:01;;;;;;;23.10;16.27;;;9.70;99.90;;;9.82;67.73;101273.28;5052177;28;20093;-75
2021/05/08 07:00:29;;;;;;;22.23;15.15;;;9.70;99.90;;;9.61;67.63;101263.50;5052100;28;20448;-75
2021/05/08 07:02:57;;;;;;;24.15;15.95;;;9.50;99.90;;;8.90;67.75;101141.63;5051874;28;20033;-75
2021/05/08 07:05:24;;;;;;;20.00;14.27;;;9.50;99.90;;;9.67;67.83;101271.47;5052016;28;20060;-75
2021/05/08 07:08:00;;;;;;;20.08;15.30;;;9.50;99.90;;;9.75;68.11;101259.19;5051996;28;20068;-71
2021/05/08 07:10:28;;;;;;;22.00;15.73;;;9.60;99.90;;;9.65;68.39;101260.00;5054181;28;20049;-71
2021/05/08 07:12:55;;;;;;;22.92;16.05;;;9.50;99.90;;;9.76;68.95;101246.84;5056007;28;20049;-71
2021/05/08 07:15:23;;;;;;;23.23;16.30;;;9.60;99.90;;;9.86;69.49;101248.66;5055998;28;20402;-71
2021/05/08 07:18:01;;;;;;;21.20;15.80;;;9.70;99.90;;;9.90;69.28;101245.16;5055613;28;20124;-71
2021/05/08 07:20:30;;;;;;;19.67;16.30;;;9.80;99.90;;;10.06;69.82;101251.38;5055948;28;20041;-71
2021/05/08 07:22:58;;;;;;;21.85;16.13;;;9.80;99.90;;;10.09;69.58;101251.38;5055595;28;20045;-71
2021/05/08 07:25:25;;;;;;;19.88;15.65;;;9.90;99.90;;;10.13;69.40;101251.44;5071105;28;20406;-72
2021/05/08 07:27:52;;;;;;;23.33;17.30;;;9.90;99.90;;;10.20;69.58;101233.84;5071100;28;20056;-73
2021/05/08 07:30:21;;;;;;;21.52;15.88;;;10.10;99.90;;;10.24;68.77;101241.78;5055326;28;20474;-73
2021/05/08 07:32:48;;;;;;;23.13;16.33;;;10.10;99.90;;;10.16;67.89;101238.25;5055621;28;20493;-72
2021/05/08 07:35:17;;;;;;;18.33;14.82;;;10.00;99.90;;;10.06;67.99;101232.91;5054049;28;20063;-70
2021/05/08 07:37:45;;;;;;;24.40;15.77;;;10.00;99.90;;;10.39;68.51;101225.97;5055429;28;20056;-73
2021/05/08 07:40:13;;;;;;;19.63;15.77;;;10.20;99.90;;;10.20;68.63;101210.06;5055563;28;20469;-72
2021/05/08 07:42:41;;;;;;;22.02;15.68;;;10.10;99.90;;;10.48;67.84;101231.28;5055272;28;20061;-72
2021/05/08 07:45:10;;;;;;;24.50;15.65;;;10.30;99.90;;;10.45;68.40;101225.09;5054959;28;20090;-73
2021/05/08 07:47:39;;;;;;;21.75;15.05;;;10.30;99.90;;;10.48;67.07;101227.75;5055580;28;20053;-71
2021/05/08 07:50:08;;;;;;;28.35;16.17;;;10.30;99.90;;;10.53;66.98;101224.22;5055163;28;20056;-75
2021/05/08 07:52:37;;;;;;;19.20;14.45;;;10.40;99.90;;;10.45;67.19;101217.19;5055144;28;20082;-73
2021/05/08 07:55:06;;;;;;;22.02;15.65;;;10.30;99.90;;;10.46;67.89;101219.81;5055464;28;20049;-76
2021/05/08 07:57:34;;;;;;;20.27;14.27;;;10.30;99.90;;;10.65;67.45;101218.06;5055082;28;20383;-71
2021/05/08 08:00:01;;;;;;;19.77;14.82;;;10.40;99.90;;;10.73;67.98;101216.31;5054556;28;20052;-74
2021/05/08 08:02:32;;;;;;;19.27;14.63;;;10.60;99.90;;;10.71;67.62;101208.38;5055231;28;20406;-75
2021/05/08 08:05:00;;;;;;;17.98;13.40;;;10.60;99.90;;;10.71;66.77;101216.31;5070095;28;20406;-73
2021/05/08 08:07:28;;;;;;;19.10;15.15;;;10.60;99.90;;;10.82;66.16;101206.59;5054879;28;20033;-81
2021/05/08 08:09:56;;;;;;;19.58;14.73;;;10.60;99.90;;;10.98;65.78;101203.94;5055314;28;20057;-79
2021/05/08 08:12:24;;;;;;;20.20;14.75;;;10.80;99.90;;;10.84;66.65;101185.44;5055798;28;20041;-81
2021/05/08 08:14:53;;;;;;;18.17;13.32;;;10.80;99.90;;;11.20;65.88;101201.28;5056796;28;20124;-81
2021/05/08 08:17:20;;;;;;;18.77;14.35;;;11.00;99.90;;;11.23;65.61;101195.97;5055751;28;20045;-79
2021/05/08 08:19:49;;;;;;;17.92;13.13;;;11.10;99.90;;;10.63;65.81;101063.75;5054889;28;20049;-77
2021/05/08 08:22:17;;;;;;;18.27;13.20;;;11.20;99.90;;;11.35;65.59;101195.06;5054724;28;20040;-77
2021/05/08 08:24:45;;;;;;;18.65;12.50;;;11.20;99.90;;;11.39;65.64;101179.19;5054960;28;20052;-75
2021/05/08 08:27:14;;;;;;;18.15;12.93;;;11.20;99.90;;;11.35;64.15;101176.53;5054799;28;20124;-77
2021/05/08 08:29:44;;;;;;;18.85;12.52;;;11.20;99.90;;;11.38;64.71;101190.63;5054685;28;20052;-77
2021/05/08 08:32:11;;;;;;;18.05;11.77;;;11.20;99.90;;;11.44;65.86;101192.41;5053448;28;20508;-77
2021/05/08 08:34:39;;;;;;;14.32;11.93;;;11.20;99.90;;;11.58;65.10;101186.19;5054545;28;20075;-78
2021/05/08 08:37:06;;;;;;;15.13;11.15;;;11.40;99.90;;;11.59;64.48;101179.97;5054422;28;20067;-77
2021/05/08 08:39:34;;;;;;;16.50;11.82;;;11.40;99.90;;;11.52;64.76;101175.59;5053165;28;20071;-78
2021/05/08 08:42:08;;;;;;;19.42;12.13;;;11.40;99.90;;;11.59;64.73;101185.28;5053927;28;20037;-77
2021/05/08 08:44:36;;;;;;;16.83;11.48;;;11.50;99.90;;;11.58;62.54;101180.00;5054279;28;20041;-78
2021/05/08 08:47:04;;;;;;;20.67;12.18;;;11.50;99.90;;;11.69;63.02;101179.09;5054164;28;20055;-78
2021/05/08 08:49:34;;;;;;;15.95;11.75;;;11.50;99.90;;;11.69;62.29;101168.50;5069506;28;20127;-78
2021/05/08 08:52:01;;;;;;;18.65;12.50;;;11.50;99.90;;;11.86;63.35;101167.53;5069457;28;20053;-78
2021/05/08 08:54:29;;;;;;;13.90;10.48;;;11.60;99.90;;;11.94;61.93;101179.00;5052740;28;20068;-79
2021/05/08 08:57:03;;;;;;;13.40;9.93;;;11.70;99.90;;;12.00;62.86;101176.31;5053967;28;20053;-78
2021/05/08 08:59:31;;;;;;;12.63;10.23;;;11.80;99.90;;;11.90;61.29;101182.56;5053615;28;20067;-78
2021/05/08 09:01:59;;;;;;;13.90;10.75;;;11.80;99.90;;;11.85;62.49;101185.22;5053870;28;20052;-76
2021/05/08 09:04:27;;;;;;;14.60;10.05;;;11.80;99.90;;;11.94;62.56;101186.94;5053880;28;20367;-77
2021/05/08 09:06:55;;;;;;;16.95;10.07;;;11.80;99.90;;;11.98;64.10;101183.41;5052701;28;20048;-77
2021/05/08 09:09:22;;;;;;;17.35;9.65;;;11.80;99.90;;;11.96;64.19;101163.97;5053693;28;20056;-78
2021/05/08 09:11:52;;;;;;;13.35;10.00;;;11.90;99.90;;;11.87;63.22;101174.59;5053848;28;20055;-75
2021/05/08 09:14:23;;;;;;;15.52;10.25;;;11.70;99.90;;;11.85;64.87;101179.03;5053785;28;20049;-75
2021/05/08 09:17:08;;;;;;;14.13;9.13;;;11.70;99.90;;;11.82;63.91;101155.19;5053537;28;20465;-76
2021/05/08 09:19:37;;;;;;;15.30;9.52;;;11.70;99.90;;;11.67;64.29;101170.25;5053753;28;20071;-77
2021/05/08 09:22:29;;;;;;;12.63;9.80;;;11.60;99.90;;;11.82;63.82;101157.84;5053376;28;20466;-77
2021/05/08 09:25:06;;;;;;;11.73;9.88;;;11.60;99.90;;;11.57;64.20;101133.19;5053569;28;20045;-79
2021/05/08 09:27:36;;;;;;;13.70;9.40;;;11.60;99.90;;;11.81;64.85;101172.84;5053272;28;20112;-79
2021/05/08 09:30:06;;;;;;;15.07;10.77;;;11.70;99.90;;;11.72;65.47;101160.56;5052265;28;20486;-79
2021/05/08 09:32:39;;;;;;;13.15;10.20;;;11.60;99.90;;;11.66;65.28;101144.69;5053036;28;20037;-78
2021/05/08 09:35:10;;;;;;;15.38;10.45;;;11.60;99.90;;;11.93;66.83;101138.34;5052826;28;20114;-78
2021/05/08 09:37:38;;;;;;;13.38;10.43;;;11.70;99.90;;;11.35;67.17;101073.25;5053438;28;20060;-78
2021/05/08 09:40:18;;;;;;;16.52;10.95;;;11.70;99.90;;;11.88;67.28;101131.31;5053068;28;20486;-78
2021/05/08 09:42:49;;;;;;;16.60;10.50;;;11.70;99.90;;;11.63;67.23;101131.38;5053292;28;20045;-78
2021/05/08 09:45:17;;;;;;;14.20;10.27;;;11.60;99.90;;;11.49;67.76;101101.44;5052930;28;20045;-77
2021/05/08 09:47:45;;;;;;;16.08;10.57;;;11.60;99.90;;;11.43;69.60;101112.06;5053235;28;20095;-75
2021/05/08 09:50:15;;;;;;;13.55;10.63;;;11.40;99.90;;;11.50;71.09;101094.38;5053091;28;20041;-75
2021/05/08 09:52:52;;;;;;;15.88;10.55;;;11.40;99.90;;;11.56;71.30;101116.41;5053186;28;20051;-75
2021/05/08 09:55:22;;;;;;;12.25;10.40;;;11.40;99.90;;;11.55;70.71;101124.38;5053101;28;20087;-77
2021/05/08 09:58:11;;;;;;;13.10;9.77;;;11.40;99.90;;;11.48;71.41;101104.97;5053087;28;20048;-78
2021/05/08 10:00:41;;;;;;;15.15;10.55;;;11.40;99.90;;;11.41;71.73;101100.59;5048496;28;20065;-78
2021/05/08 10:03:13;;;;;;;14.52;10.23;;;11.30;99.90;;;11.28;72.21;101095.34;5068443;28;20367;-77
2021/05/08 10:05:43;;;;;;;14.27;10.70;;;11.20;99.90;;;11.18;73.90;101052.16;5052664;28;20064;-80
2021/05/08 10:08:11;;;;;;;15.00;10.70;;;11.10;99.90;;;11.14;75.14;101068.03;5052947;28;20043;-80
2021/05/08 10:10:38;;;;;;;13.48;10.25;;;11.00;99.90;;;11.14;75.76;101062.75;5052884;28;20049;-80
2021/05/08 10:13:09;;;;;;;15.65;10.25;;;11.00;99.90;;;11.05;74.34;101066.31;5052775;28;20037;-74
2021/05/08 10:15:39;;;;;;;13.60;9.85;;;10.90;99.90;;;10.94;74.98;101061.94;5052756;28;20071;-75
2021/05/08 10:18:11;;;;;;;13.73;9.63;;;10.90;99.90;;;11.08;75.66;101047.75;5052723;28;20072;-76